createdAt,value
2024-04-24T00:00:25.103Z,98002.73
2024-04-24T00:03:13.589Z,97999.73
2024-04-24T00:05:42.115Z,98005.65
2024-04-24T00:08:10.746Z,98001.33
2024-04-24T00:10:39.485Z,98001.76
2024-04-24T00:13:08.058Z,97996.91
2024-04-24T00:15:36.763Z,97993.17
2024-04-24T00:18:05.472Z,97993.11
2024-04-24T00:20:33.988Z,97984.70
2024-04-24T00:23:03.344Z,97978.93
2024-04-24T00:25:32.006Z,97977.91
2024-04-24T00:28:00.473Z,97973.02
2024-04-24T00:30:29.013Z,97969.71
2024-04-24T00:32:58.150Z,97964.95
2024-04-24T00:35:26.720Z,97957.16
2024-04-24T00:37:55.305Z,97961.83
2024-04-24T00:40:23.779Z,97959.56
2024-04-24T00:42:52.301Z,97954.30
2024-04-24T00:45:20.827Z,97953.92
2024-04-24T00:47:50.680Z,97949.39
2024-04-24T00:50:20.355Z,97949.45
2024-04-24T00:52:49.073Z,97952.42
2024-04-24T00:55:17.833Z,97947.48
2024-04-24T00:57:46.381Z,97947.16
2024-04-24T01:00:15.437Z,97941.48
2024-04-24T01:02:45.122Z,97935.92
2024-04-24T01:05:13.676Z,97932.52
2024-04-24T01:07:42.568Z,97929.73
2024-04-24T01:10:18.458Z,97929.84
2024-04-24T01:12:47.477Z,97928.35
2024-04-24T01:15:17.590Z,97928.84
2024-04-24T01:17:49.914Z,97931.98
2024-04-24T01:20:24.465Z,97931.98
2024-04-24T01:23:38.810Z,97933.02
2024-04-24T01:26:15.518Z,97930.40
2024-04-24T01:28:44.072Z,97924.19
2024-04-24T01:31:12.543Z,97922.20
2024-04-24T01:33:41.215Z,97917.27
2024-04-24T01:36:09.855Z,97913.14
2024-04-24T01:38:38.343Z,97912.09
2024-04-24T01:41:06.860Z,97906.14
2024-04-24T01:43:37.665Z,97906.41
2024-04-24T01:46:06.164Z,97902.17
2024-04-24T01:48:34.875Z,97897.93
2024-04-24T01:51:03.572Z,97894.16
2024-04-24T01:53:32.466Z,97890.55
2024-04-24T01:56:01.150Z,97883.38
2024-04-24T01:58:29.694Z,97876.83
2024-04-24T02:00:58.218Z,97874.48
2024-04-24T02:03:26.702Z,97867.95
2024-04-24T02:05:55.205Z,97864.49
2024-04-24T02:08:23.766Z,97864.34
2024-04-24T02:10:52.312Z,97862.75
2024-04-24T02:13:20.780Z,97859.04
2024-04-24T02:15:49.300Z,97854.05
2024-04-24T02:18:17.898Z,97853.31
2024-04-24T02:20:46.605Z,97852.26
2024-04-24T02:23:21.268Z,97849.98
2024-04-24T02:25:50.029Z,97849.70
2024-04-24T02:28:18.607Z,97850.23
2024-04-24T02:30:47.084Z,97848.84
2024-04-24T02:33:15.677Z,97847.86
2024-04-24T02:35:44.313Z,97848.31
2024-04-24T02:38:12.822Z,97843.79
2024-04-24T02:40:41.461Z,97842.46
2024-04-24T02:43:10.067Z,97839.05
2024-04-24T02:45:38.602Z,97840.65
2024-04-24T02:48:08.809Z,97838.69
2024-04-24T02:50:37.437Z,97836.87
2024-04-24T02:53:06.038Z,97837.40
2024-04-24T02:55:34.568Z,97835.70
2024-04-24T02:58:03.072Z,97829.79
2024-04-24T03:00:31.743Z,97825.81
2024-04-24T03:03:00.404Z,97823.05
2024-04-24T03:05:29.187Z,97823.11
2024-04-24T03:07:57.758Z,97822.58
2024-04-24T03:10:26.323Z,97818.45
2024-04-24T03:12:54.826Z,97814.74
2024-04-24T03:15:23.333Z,97808.18
2024-04-24T03:17:51.902Z,97803.42
2024-04-24T03:20:20.561Z,97804.09
2024-04-24T03:22:49.109Z,97799.40
2024-04-24T03:25:17.663Z,97791.71
2024-04-24T03:27:46.153Z,97792.33
2024-04-24T03:30:14.644Z,97785.95
2024-04-24T03:32:43.286Z,97791.17
2024-04-24T03:35:11.828Z,97788.12
2024-04-24T03:37:40.683Z,97786.17
2024-04-24T03:40:09.369Z,97783.72
2024-04-24T03:42:38.158Z,97782.71
2024-04-24T03:45:06.905Z,97775.64
2024-04-24T03:47:35.548Z,97776.73
2024-04-24T03:50:04.610Z,97774.03
2024-04-24T03:52:33.156Z,97773.61
2024-04-24T03:55:01.655Z,97775.50
2024-04-24T03:57:30.165Z,97780.27
2024-04-24T03:59:58.632Z,97778.50
2024-04-24T04:02:27.232Z,97776.56
2024-04-24T04:04:55.798Z,97773.39
2024-04-24T04:07:24.318Z,97769.08
2024-04-24T04:09:52.859Z,97761.77
2024-04-24T04:12:21.457Z,97766.10
2024-04-24T04:14:49.941Z,97764.52
2024-04-24T04:17:18.634Z,97761.03
2024-04-24T04:19:47.183Z,97763.39
2024-04-24T04:22:16.484Z,97762.98
2024-04-24T04:24:44.978Z,97764.11
2024-04-24T04:27:13.493Z,97765.17
2024-04-24T04:29:41.989Z,97763.22
2024-04-24T04:32:10.519Z,97761.83
2024-04-24T04:34:39.012Z,97760.04
2024-04-24T04:37:07.651Z,97760.20
2024-04-24T04:39:36.149Z,97757.52
2024-04-24T04:42:04.701Z,97753.03
2024-04-24T04:44:33.227Z,97752.40
2024-04-24T04:47:01.782Z,97747.84
2024-04-24T04:49:30.346Z,97743.44
2024-04-24T04:51:58.831Z,97739.59
2024-04-24T04:54:27.308Z,97740.39
2024-04-24T04:56:55.772Z,97736.89
2024-04-24T04:59:24.497Z,97736.67
2024-04-24T05:01:53.812Z,97736.79
2024-04-24T05:04:23.265Z,97731.85
2024-04-24T05:06:51.809Z,97728.46
2024-04-24T05:09:20.287Z,97724.77
2024-04-24T05:11:49.869Z,97720.22
2024-04-24T05:14:18.589Z,97718.10
2024-04-24T05:16:47.152Z,97717.10
2024-04-24T05:19:15.670Z,97710.38
2024-04-24T05:21:44.158Z,97707.85
2024-04-24T05:24:13.053Z,97703.58
2024-04-24T05:26:59.050Z,97703.98
2024-04-24T05:29:27.640Z,97703.30
2024-04-24T05:31:56.227Z,97693.09
2024-04-24T05:34:25.254Z,97695.66
2024-04-24T05:36:53.725Z,97697.45
2024-04-24T05:39:22.198Z,97692.34
2024-04-24T05:41:50.670Z,97684.27
2024-04-24T05:44:19.554Z,97679.48
2024-04-24T05:46:48.209Z,97680.42
2024-04-24T05:49:17.191Z,97679.58
2024-04-24T05:51:45.690Z,97669.80
2024-04-24T05:54:14.162Z,97672.36
2024-04-24T05:56:42.635Z,97669.01
2024-04-24T05:59:11.146Z,97664.69
2024-04-24T06:01:39.737Z,97658.34
2024-04-24T06:04:08.280Z,97662.13
2024-04-24T06:06:36.944Z,97664.48
2024-04-24T06:09:05.466Z,97660.34
2024-04-24T06:11:34.038Z,97662.15
2024-04-24T06:14:02.572Z,97661.13
2024-04-24T06:16:31.144Z,97662.41
2024-04-24T06:19:00.065Z,97664.86
2024-04-24T06:21:29.958Z,97660.71
2024-04-24T06:23:58.598Z,97658.63
2024-04-24T06:26:27.145Z,97656.14
2024-04-24T06:28:55.783Z,97654.02
2024-04-24T06:31:24.324Z,97653.90
2024-04-24T06:33:52.897Z,97653.04
2024-04-24T06:36:21.398Z,97658.27
2024-04-24T06:38:50.083Z,97656.86
2024-04-24T06:41:18.614Z,97656.98
2024-04-24T06:43:47.214Z,97656.77
2024-04-24T06:46:15.713Z,97657.42
2024-04-24T06:48:44.208Z,97656.21
2024-04-24T06:51:12.689Z,97653.00
2024-04-24T06:53:41.167Z,97652.52
2024-04-24T06:56:09.851Z,97652.40
2024-04-24T06:58:38.403Z,97653.21
2024-04-24T07:01:07.088Z,97653.33
2024-04-24T07:03:35.757Z,97647.61
2024-04-24T07:06:05.221Z,97647.95
2024-04-24T07:08:34.212Z,97644.07
2024-04-24T07:11:02.840Z,97641.55
2024-04-24T07:13:31.477Z,97634.83
2024-04-24T07:16:00.081Z,97631.46
2024-04-24T07:18:28.728Z,97628.92
2024-04-24T07:20:57.548Z,97622.84
2024-04-24T07:23:26.411Z,97624.36
2024-04-24T07:25:55.051Z,97626.02
2024-04-24T07:28:23.776Z,97627.48
2024-04-24T07:30:52.441Z,97625.45
2024-04-24T07:33:21.561Z,97622.89
2024-04-24T07:35:50.252Z,97623.60
2024-04-24T07:38:18.741Z,97626.17
2024-04-24T07:40:47.272Z,97618.75
2024-04-24T07:43:15.797Z,97620.23
2024-04-24T07:45:44.584Z,97615.06
2024-04-24T07:48:13.389Z,97619.14
2024-04-24T07:50:43.323Z,97612.77
2024-04-24T07:53:11.871Z,97608.98
2024-04-24T07:55:40.519Z,97607.90
2024-04-24T07:58:09.324Z,97601.65
2024-04-24T08:00:38.025Z,97601.00
2024-04-24T08:03:07.022Z,97596.05
2024-04-24T08:05:37.461Z,97596.41
2024-04-24T08:08:06.533Z,97597.29
2024-04-24T08:10:35.123Z,97600.30
2024-04-24T08:13:03.712Z,97594.58
2024-04-24T08:15:32.261Z,97597.36
2024-04-24T08:18:00.990Z,97593.87
2024-04-24T08:20:29.768Z,97593.04
2024-04-24T08:22:58.404Z,97588.63
2024-04-24T08:25:27.334Z,97591.39
2024-04-24T08:27:55.888Z,97585.58
2024-04-24T08:30:24.698Z,97583.23
2024-04-24T08:32:53.354Z,97584.98
2024-04-24T08:35:22.036Z,97581.34
2024-04-24T08:37:50.599Z,97578.80
2024-04-24T08:40:19.326Z,97577.61
2024-04-24T08:42:48.393Z,97572.68
2024-04-24T08:45:17.478Z,97572.85
2024-04-24T08:47:46.447Z,97572.48
2024-04-24T08:50:15.378Z,97566.73
2024-04-24T08:52:45.953Z,97565.75
2024-04-24T08:55:16.971Z,97563.52
2024-04-24T08:57:46.609Z,97563.77
2024-04-24T09:00:15.820Z,97559.95
2024-04-24T09:02:52.920Z,97555.84
2024-04-24T09:05:23.455Z,97552.18
2024-04-24T09:07:53.513Z,97553.95
2024-04-24T09:10:22.838Z,97554.90
2024-04-24T09:12:56.654Z,97550.63
2024-04-24T09:15:27.638Z,97553.14
2024-04-24T09:17:56.524Z,97552.89
2024-04-24T09:20:26.362Z,97554.65
2024-04-24T09:22:55.720Z,97556.30
2024-04-24T09:25:24.262Z,97553.98
2024-04-24T09:27:55.541Z,97553.77
2024-04-24T09:30:27.681Z,97551.63
2024-04-24T09:32:56.843Z,97545.34
2024-04-24T09:35:25.642Z,97543.81
2024-04-24T09:37:54.277Z,97542.46
2024-04-24T09:40:22.887Z,97543.87
2024-04-24T09:42:51.701Z,97541.44
2024-04-24T09:45:22.508Z,97539.64
2024-04-24T09:47:51.155Z,97536.22
2024-04-24T09:50:19.891Z,97535.90
2024-04-24T09:52:49.091Z,97526.60
2024-04-24T09:55:20.147Z,97533.02
2024-04-24T09:57:53.497Z,97527.67
2024-04-24T10:00:22.702Z,97528.34
2024-04-24T10:02:57.315Z,97525.54
2024-04-24T10:05:33.346Z,97525.53
2024-04-24T10:08:11.964Z,97523.67
2024-04-24T10:10:43.201Z,97522.66
2024-04-24T10:13:14.200Z,97515.64
2024-04-24T10:15:45.609Z,97510.13
2024-04-24T10:18:15.513Z,97511.35
2024-04-24T10:20:45.555Z,97510.55
2024-04-24T10:23:15.861Z,97507.48
2024-04-24T10:25:45.104Z,97510.34
2024-04-24T10:28:15.206Z,97508.48
2024-04-24T10:30:48.259Z,97507.38
2024-04-24T10:33:18.035Z,97506.27
2024-04-24T10:35:46.755Z,97506.70
2024-04-24T10:38:16.858Z,97506.07
2024-04-24T10:40:50.808Z,97504.68
2024-04-24T10:43:22.316Z,97503.73
2024-04-24T10:45:55.229Z,97506.36
2024-04-24T10:48:23.865Z,97503.84
2024-04-24T10:50:54.906Z,97506.26
2024-04-24T10:53:25.175Z,97498.95
2024-04-24T10:55:55.428Z,97503.28
2024-04-24T10:58:24.541Z,97505.48
2024-04-24T11:00:53.196Z,97503.66
2024-04-24T11:03:26.452Z,97502.19
2024-04-24T11:05:55.273Z,97501.52
2024-04-24T11:08:26.818Z,97502.02
2024-04-24T11:10:55.545Z,97501.61
2024-04-24T11:13:24.042Z,97503.23
2024-04-24T11:16:08.425Z,97502.65
2024-04-24T11:18:39.587Z,97506.80
2024-04-24T11:21:08.173Z,97504.75
2024-04-24T11:23:36.829Z,97507.09
2024-04-24T11:26:05.898Z,97504.52
2024-04-24T11:28:34.568Z,97507.27
2024-04-24T11:31:04.756Z,97509.49
2024-04-24T11:33:34.740Z,97511.01
2024-04-24T11:36:04.197Z,97509.20
2024-04-24T11:38:33.847Z,97508.68
2024-04-24T11:41:02.663Z,97507.75
2024-04-24T11:43:31.646Z,97513.22
2024-04-24T11:46:00.358Z,97515.59
2024-04-24T11:48:40.312Z,97514.79
2024-04-24T11:51:12.708Z,97511.55
2024-04-24T11:53:47.553Z,97508.34
2024-04-24T11:56:16.607Z,97508.00
2024-04-24T11:58:45.296Z,97508.40
2024-04-24T12:01:13.965Z,97507.55
2024-04-24T12:03:44.149Z,97512.72
2024-04-24T12:06:12.718Z,97507.48
2024-04-24T12:08:42.054Z,97504.14
2024-04-24T12:11:10.759Z,97503.62
2024-04-24T12:13:43.018Z,97499.02
2024-04-24T12:16:11.802Z,97499.54
2024-04-24T12:18:40.292Z,97500.92
2024-04-24T12:21:08.813Z,97498.08
2024-04-24T12:23:37.395Z,97498.08
2024-04-24T12:26:05.931Z,97500.34
2024-04-24T12:28:34.459Z,97501.03
2024-04-24T12:31:04.095Z,97500.42
2024-04-24T12:33:32.743Z,97502.81
2024-04-24T12:36:01.277Z,97501.06
2024-04-24T12:38:29.823Z,97502.85
2024-04-24T12:40:58.333Z,97499.66
2024-04-24T12:43:26.946Z,97499.34
2024-04-24T12:45:55.426Z,97504.78
2024-04-24T12:48:23.942Z,97502.75
2024-04-24T12:50:52.584Z,97500.15
2024-04-24T12:53:21.079Z,97503.52
2024-04-24T12:55:49.565Z,97504.62
2024-04-24T12:58:18.082Z,97503.15
2024-04-24T13:00:46.628Z,97499.64
2024-04-24T13:03:15.394Z,97503.29
2024-04-24T13:05:44.371Z,97506.17
2024-04-24T13:08:12.904Z,97509.63
2024-04-24T13:10:41.424Z,97507.66
2024-04-24T13:13:09.946Z,97509.66
2024-04-24T13:15:38.658Z,97505.25
2024-04-24T13:18:07.596Z,97508.93
2024-04-24T13:20:36.279Z,97505.55
2024-04-24T13:23:05.082Z,97502.55
2024-04-24T13:25:33.598Z,97503.99
2024-04-24T13:28:02.709Z,97504.05
2024-04-24T13:30:31.202Z,97502.54
2024-04-24T13:32:59.806Z,97502.46
2024-04-24T13:35:28.593Z,97506.27
2024-04-24T13:37:57.794Z,97506.30
2024-04-24T13:40:26.651Z,97502.96
2024-04-24T13:42:55.149Z,97503.00
2024-04-24T13:45:24.024Z,97502.93
2024-04-24T13:47:52.823Z,97502.16
2024-04-24T13:50:21.883Z,97500.20
2024-04-24T13:52:50.389Z,97497.48
2024-04-24T13:55:19.094Z,97498.91
2024-04-24T13:57:47.590Z,97498.99
2024-04-24T14:00:16.560Z,97500.80
2024-04-24T14:02:45.183Z,97502.10
2024-04-24T14:05:13.815Z,97500.20
2024-04-24T14:07:42.285Z,97500.23
2024-04-24T14:10:10.887Z,97501.79
2024-04-24T14:12:39.401Z,97503.30
2024-04-24T14:15:09.800Z,97503.23
2024-04-24T14:17:43.327Z,97503.56
2024-04-24T14:20:11.980Z,97502.41
2024-04-24T14:22:42.117Z,97505.10
2024-04-24T14:25:10.638Z,97500.17
2024-04-24T14:27:39.125Z,97503.02
2024-04-24T14:30:09.068Z,97502.73
2024-04-24T14:32:37.704Z,97502.86
2024-04-24T14:35:07.255Z,97496.27
2024-04-24T14:37:35.785Z,97495.44
2024-04-24T14:40:04.591Z,97494.48
2024-04-24T14:42:33.146Z,97491.61
2024-04-24T14:45:01.717Z,97493.84
2024-04-24T14:47:30.332Z,97494.86
2024-04-24T14:49:59.159Z,97487.52
2024-04-24T14:52:28.346Z,97492.50
2024-04-24T14:54:56.830Z,97492.08
2024-04-24T14:57:25.701Z,97488.90
2024-04-24T14:59:54.211Z,97489.33
2024-04-24T15:02:23.080Z,97487.33
2024-04-24T15:04:51.613Z,97488.48
2024-04-24T15:07:20.342Z,97488.91
2024-04-24T15:09:48.915Z,97485.16
2024-04-24T15:12:17.498Z,97486.23
2024-04-24T15:14:46.050Z,97484.41
2024-04-24T15:17:14.670Z,97482.23
2024-04-24T15:19:43.269Z,97482.56
2024-04-24T15:22:12.254Z,97480.17
2024-04-24T15:24:40.747Z,97482.91
2024-04-24T15:27:10.477Z,97481.87
2024-04-24T15:29:38.926Z,97482.27
2024-04-24T15:32:07.581Z,97482.98
2024-04-24T15:34:36.902Z,97483.38
2024-04-24T15:37:06.889Z,97486.71
2024-04-24T15:39:35.476Z,97486.30
2024-04-24T15:42:04.130Z,97481.70
2024-04-24T15:44:34.363Z,97482.11
2024-04-24T15:47:02.884Z,97484.80
2024-04-24T15:49:31.382Z,97485.51
2024-04-24T15:51:59.974Z,97484.08
2024-04-24T15:54:28.487Z,97478.02
2024-04-24T15:56:57.021Z,97479.61
2024-04-24T15:59:25.678Z,97477.92
2024-04-24T16:01:54.170Z,97479.44
2024-04-24T16:04:22.637Z,97480.33
2024-04-24T16:06:51.171Z,97481.05
2024-04-24T16:09:19.629Z,97484.94
2024-04-24T16:11:48.152Z,97489.13
2024-04-24T16:14:17.159Z,97491.48
2024-04-24T16:16:48.385Z,97490.25
2024-04-24T16:19:17.385Z,97492.05
2024-04-24T16:21:45.945Z,97492.39
2024-04-24T16:24:14.647Z,97493.76
2024-04-24T16:26:43.112Z,97491.91
2024-04-24T16:29:11.653Z,97495.35
2024-04-24T16:31:40.198Z,97501.85
2024-04-24T16:34:08.715Z,97501.87
2024-04-24T16:36:37.299Z,97505.27
2024-04-24T16:39:05.775Z,97503.03
2024-04-24T16:41:34.330Z,97503.50
2024-04-24T16:44:04.143Z,97508.02
2024-04-24T16:46:32.762Z,97508.02
2024-04-24T16:49:01.286Z,97514.11
2024-04-24T16:51:29.767Z,97517.77
2024-04-24T16:53:58.289Z,97518.92
2024-04-24T16:56:26.766Z,97525.66
2024-04-24T16:58:55.322Z,97532.23
2024-04-24T17:01:23.783Z,97530.78
2024-04-24T17:03:54.446Z,97532.98
2024-04-24T17:06:22.940Z,97536.35
2024-04-24T17:08:51.409Z,97540.48
2024-04-24T17:11:19.911Z,97540.70
2024-04-24T17:13:48.492Z,97539.96
2024-04-24T17:16:17.091Z,97544.85
2024-04-24T17:18:45.749Z,97547.92
2024-04-24T17:21:14.338Z,97542.77
2024-04-24T17:23:42.889Z,97549.65
2024-04-24T17:26:11.966Z,97550.09
2024-04-24T17:28:41.104Z,97550.92
2024-04-24T17:31:09.902Z,97553.84
2024-04-24T17:33:38.369Z,97554.79
2024-04-24T17:36:08.643Z,97560.17
2024-04-24T17:38:37.227Z,97560.87
2024-04-24T17:41:06.514Z,97561.20
2024-04-24T17:43:36.242Z,97564.42
2024-04-24T17:46:07.325Z,97566.61
2024-04-24T17:48:36.287Z,97569.05
2024-04-24T17:51:05.316Z,97571.10
2024-04-24T17:53:34.963Z,97568.76
2024-04-24T17:56:03.961Z,97569.34
2024-04-24T17:58:32.459Z,97565.02
2024-04-24T18:01:00.979Z,97565.09
2024-04-24T18:03:30.638Z,97566.56
2024-04-24T18:05:59.306Z,97570.20
2024-04-24T18:08:28.095Z,97569.56
2024-04-24T18:10:56.698Z,97573.97
2024-04-24T18:13:25.243Z,97578.89
2024-04-24T18:15:53.752Z,97580.81
2024-04-24T18:18:22.454Z,97581.80
2024-04-24T18:20:51.424Z,97589.14
2024-04-24T18:23:19.898Z,97587.73
2024-04-24T18:25:48.712Z,97590.39
2024-04-24T18:28:17.263Z,97594.10
2024-04-24T18:30:45.912Z,97594.11
2024-04-24T18:33:14.712Z,97601.33
2024-04-24T18:35:43.583Z,97603.70
2024-04-24T18:38:12.462Z,97604.60
2024-04-24T18:40:41.028Z,97608.15
2024-04-24T18:43:09.896Z,97608.55
2024-04-24T18:45:38.405Z,97607.78
2024-04-24T18:48:10.358Z,97616.58
2024-04-24T18:50:40.318Z,97621.64
2024-04-24T18:53:08.962Z,97616.31
2024-04-24T18:55:39.111Z,97621.25
2024-04-24T18:58:07.596Z,97627.86
2024-04-24T19:00:36.396Z,97632.60
2024-04-24T19:03:05.284Z,97631.61
2024-04-24T19:05:33.970Z,97631.09
2024-04-24T19:08:02.607Z,97634.14
2024-04-24T19:10:31.156Z,97634.07
2024-04-24T19:12:59.628Z,97636.10
2024-04-24T19:15:29.301Z,97630.55
2024-04-24T19:17:57.862Z,97639.97
2024-04-24T19:20:26.493Z,97636.59
2024-04-24T19:22:55.038Z,97636.67
2024-04-24T19:25:23.529Z,97636.80
2024-04-24T19:27:51.996Z,97638.74
2024-04-24T19:30:20.481Z,97636.40
2024-04-24T19:32:49.540Z,97634.96
2024-04-24T19:35:18.482Z,97634.50
2024-04-24T19:37:51.620Z,97634.30
2024-04-24T19:40:23.316Z,97635.47
2024-04-24T19:42:52.013Z,97641.56
2024-04-24T19:45:20.552Z,97641.86
2024-04-24T19:47:49.131Z,97642.98
2024-04-24T19:50:18.016Z,97646.16
2024-04-24T19:52:46.591Z,97645.61
2024-04-24T19:55:15.106Z,97645.91
2024-04-24T19:57:43.620Z,97647.33
2024-04-24T20:00:13.363Z,97646.05
2024-04-24T20:02:41.973Z,97645.69
2024-04-24T20:05:10.613Z,97645.21
2024-04-24T20:07:39.138Z,97646.98
2024-04-24T20:10:07.826Z,97647.14
2024-04-24T20:12:36.378Z,97644.89
2024-04-24T20:15:06.228Z,97646.77
2024-04-24T20:17:36.369Z,97643.41
2024-04-24T20:20:05.365Z,97648.17
2024-04-24T20:22:33.938Z,97646.61
2024-04-24T20:25:02.418Z,97648.89
2024-04-24T20:27:30.954Z,97646.74
2024-04-24T20:30:00.055Z,97647.30
2024-04-24T20:32:30.909Z,97650.11
2024-04-24T20:34:59.707Z,97650.73
2024-04-24T20:37:28.294Z,97652.04
2024-04-24T20:39:56.867Z,97646.98
2024-04-24T20:42:25.377Z,97649.79
2024-04-24T20:44:55.062Z,97650.45
2024-04-24T20:47:23.637Z,97650.58
2024-04-24T20:49:52.156Z,97647.84
2024-04-24T20:52:20.680Z,97649.98
2024-04-24T20:54:50.884Z,97652.66
2024-04-24T20:57:19.426Z,97651.48
2024-04-24T20:59:47.885Z,97652.04
2024-04-24T21:02:16.400Z,97648.85
2024-04-24T21:04:45.516Z,97645.26
2024-04-24T21:07:14.170Z,97648.98
2024-04-24T21:09:43.809Z,97652.06
2024-04-24T21:12:12.306Z,97653.29
2024-04-24T21:14:40.802Z,97653.41
2024-04-24T21:17:09.284Z,97653.92
2024-04-24T21:19:37.778Z,97657.19
2024-04-24T21:22:06.338Z,97657.69
2024-04-24T21:24:34.818Z,97657.88
2024-04-24T21:27:03.308Z,97657.05
2024-04-24T21:29:31.986Z,97649.68
2024-04-24T21:32:00.583Z,97647.77
2024-04-24T21:34:29.119Z,97648.32
2024-04-24T21:36:57.587Z,97646.63
2024-04-24T21:39:26.053Z,97649.29
2024-04-24T21:41:54.848Z,97647.27
2024-04-24T21:44:23.869Z,97643.70
2024-04-24T21:46:52.370Z,97648.27
2024-04-24T21:49:20.996Z,97647.34
2024-04-24T21:51:49.500Z,97647.30
2024-04-24T21:54:17.993Z,97645.84
2024-04-24T21:56:46.505Z,97655.66
2024-04-24T21:59:15.024Z,97650.77
2024-04-24T22:01:44.819Z,97652.65
2024-04-24T22:04:13.302Z,97655.73
2024-04-24T22:06:44.576Z,97655.66
2024-04-24T22:09:13.070Z,97655.67
2024-04-24T22:11:43.431Z,97653.27
2024-04-24T22:14:12.017Z,97650.58
2024-04-24T22:16:40.540Z,97652.33
2024-04-24T22:19:09.205Z,97650.67
2024-04-24T22:21:37.782Z,97654.67
2024-04-24T22:24:06.516Z,97657.91
2024-04-24T22:26:35.276Z,97655.55
2024-04-24T22:29:03.846Z,97657.15
2024-04-24T22:31:32.333Z,97652.71
2024-04-24T22:34:00.855Z,97654.04
2024-04-24T22:36:29.480Z,97649.58
2024-04-24T22:38:58.173Z,97648.79
2024-04-24T22:41:26.718Z,97648.45
2024-04-24T22:43:55.299Z,97647.92
2024-04-24T22:46:23.796Z,97650.54
2024-04-24T22:48:52.335Z,97652.15
2024-04-24T22:51:21.131Z,97651.17
2024-04-24T22:53:49.596Z,97650.40
2024-04-24T22:56:18.112Z,97656.02
2024-04-24T22:58:47.616Z,97653.91
2024-04-24T23:01:16.267Z,97654.34
2024-04-24T23:03:44.827Z,97652.38
2024-04-24T23:06:14.064Z,97652.30
2024-04-24T23:08:43.258Z,97650.36
2024-04-24T23:11:11.985Z,97650.34
2024-04-24T23:13:40.544Z,97648.71
2024-04-24T23:16:09.443Z,97650.54
2024-04-24T23:18:38.235Z,97648.72
2024-04-24T23:21:06.879Z,97647.66
2024-04-24T23:23:35.425Z,97649.45
2024-04-24T23:26:04.080Z,97648.20
2024-04-24T23:28:32.604Z,97645.52
2024-04-24T23:31:01.123Z,97647.08
2024-04-24T23:33:29.630Z,97649.02
2024-04-24T23:36:05.992Z,97649.98
2024-04-24T23:38:34.589Z,97646.54
2024-04-24T23:41:03.395Z,97643.45
2024-04-24T23:43:31.942Z,97643.85
2024-04-24T23:46:03.269Z,97642.55
2024-04-24T23:48:33.814Z,97646.47
2024-04-24T23:51:02.443Z,97644.28
2024-04-24T23:53:34.084Z,97643.46
2024-04-24T23:56:03.246Z,97643.66
2024-04-24T23:58:31.865Z,97643.86
